Latest Weather Observations for Spring Bay

IDT60801

Issued at 5:31 pm EST Wednesday 27 May 2015 (issued every 30 minutes, with the page automatically refreshed every 10 minutes)

About weather observations | Map of weather stations | Latest weather observations for TAS | Other Formats
Station Details ID: 092133 Name: SPRING BAY NTC AWS Lat: -42.55 Lon: 147.93 Height: 0.0 m
Data from the previous 72 hours. | See also: Recent months for locations in Tasmania
Date/Time
EST
Temp
°C
App
Temp
°C
Dew
Point
Rel
Hum
%
Delta-T
°C
Wind Press
QNH
hPa
Press
MSL
hPa
Rain
since 9 am
mm
Dir
 
Spd
km/h
Gust
km/h
Spd
kts
Gust
kts
27/05:30pm 14.3 - - - - - - - - - 1013.6 1013.6 -
27/05:00pm 14.6 - - - - - - - - - 1013.2 1013.2 -
27/04:30pm 14.8 - - - - - - - - - 1013.5 1013.5 -
27/04:00pm 15.0 - - - - - - - - - 1013.8 1013.8 -
27/03:30pm 14.9 - - - - - - - - - 1013.9 1013.9 -
27/03:00pm 14.0 - - - - - - - - - 1014.1 1014.1 -
27/02:30pm 13.1 - - - - - - - - - 1014.4 1014.4 -
27/02:00pm 12.8 - - - - - - - - - 1014.6 1014.6 -
27/01:30pm 12.9 - - - - - - - - - 1014.7 1014.7 -
27/01:00pm 12.9 - - - - - - - - - 1015.4 1015.4 -
27/12:30pm 12.9 - - - - - - - - - 1015.7 1015.7 -
27/12:00pm 12.6 - - - - - - - - - 1016.2 1016.2 -
27/11:30am 12.2 - - - - - - - - - 1017.0 1017.0 -
27/11:00am 12.6 - - - - - - - - - 1017.5 1017.5 -
27/10:30am 13.1 - - - - - - - - - 1017.8 1017.8 -
27/10:00am 13.3 - - - - - - - - - 1017.7 1017.7 -
27/09:30am 13.1 - - - - - - - - - 1018.2 1018.2 -
27/09:00am 11.5 - - - - - - - - - 1018.5 1018.5 -
27/08:30am 10.5 - - - - - - - - - 1018.8 1018.8 -
27/08:00am 9.6 - - - - - - - - - 1018.8 1018.8 -
27/07:30am 8.7 - - - - - - - - - 1019.0 1019.0 -
27/07:00am 8.0 - - - - - - - - - 1019.3 1019.3 -
27/06:30am 7.3 - - - - - - - - - 1019.4 1019.4 -
27/06:00am 7.1 - - - - - - - - - 1019.5 1019.5 -
27/05:30am 7.2 - - - - - - - - - 1019.7 1019.7 -
27/05:00am 7.5 - - - - - - - - - 1019.9 1019.9 -
27/04:30am 7.3 - - - - - - - - - 1020.1 1020.1 -
27/04:00am 7.6 - - - - - - - - - 1020.4 1020.4 -
27/03:30am 7.7 - - - - - - - - - 1020.7 1020.7 -
27/03:00am 7.8 - - - - - - - - - 1021.3 1021.3 -
27/02:30am 8.1 - - - - - - - - - 1021.6 1021.6 -
27/02:00am 8.3 - - - - - - - - - 1021.9 1021.9 -
27/01:30am 8.5 - - - - - - - - - 1022.2 1022.2 -
27/01:00am 8.7 - - - - - - - - - 1022.2 1022.2 -
27/12:30am 9.3 - - - - - - - - - 1022.4 1022.4 -
27/12:00am 9.8 - - - - - - - - - 1022.9 1022.9 -
 
Date/Time
EST
Temp
°C
App
Temp
°C
Dew
Point
Rel
Hum
%
Delta-T
°C
Wind Press
QNH
hPa
Press
MSL
hPa
Rain
since 9 am
mm
Dir
 
Spd
km/h
Gust
km/h
Spd
kts
Gust
kts
26/11:30pm 9.9 - - - - - - - - - 1023.3 1023.3 -
26/11:00pm 9.6 - - - - - - - - - 1023.6 1023.6 -
26/10:30pm 10.3 - - - - - - - - - 1023.9 1023.9 -
26/10:00pm 10.4 - - - - - - - - - 1024.1 1024.1 -
26/09:30pm 10.5 - - - - - - - - - 1024.1 1024.1 -
26/09:00pm 10.7 - - - - - - - - - 1024.3 1024.3 -
26/08:30pm 10.8 - - - - - - - - - 1024.5 1024.5 -
26/08:00pm 10.9 - - - - - - - - - 1024.7 1024.7 -
26/07:30pm 11.2 - - - - - - - - - 1024.7 1024.7 -
26/07:00pm 11.4 - - - - - - - - - 1024.9 1024.9 -
26/06:30pm 11.4 - - - - - - - - - 1024.9 1024.9 -
26/06:00pm 11.7 - - - - - - - - - 1024.8 1024.8 -
26/05:30pm 11.7 - - - - - - - - - 1024.9 1024.9 -
26/05:00pm 11.6 - - - - - - - - - 1024.9 1024.9 -
26/04:30pm 12.2 - - - - - - - - - 1024.9 1024.9 -
26/04:00pm 12.6 - - - - - - - - - 1025.0 1025.0 -
26/03:30pm 13.1 - - - - - - - - - 1024.8 1024.8 -
26/03:00pm 13.1 - - - - - - - - - 1024.8 1024.8 -
26/02:30pm 13.4 - - - - - - - - - 1024.8 1024.8 -
26/02:00pm 13.5 - - - - - - - - - 1024.8 1024.8 -
26/01:30pm 13.7 - - - - - - - - - 1024.9 1024.9 -
26/01:00pm 13.4 - - - - - - - - - 1025.1 1025.1 -
26/12:30pm 13.7 - - - - - - - - - 1025.4 1025.4 -
26/12:00pm 14.0 - - - - - - - - - 1025.7 1025.7 -
26/11:30am 12.6 - - - - - - - - - 1026.0 1026.0 -
26/11:00am 11.9 - - - - - - - - - 1026.5 1026.5 -
26/10:30am 13.7 - - - - - - - - - 1026.8 1026.8 -
26/10:00am 10.2 - - - - - - - - - 1026.7 1026.7 -
26/09:30am 9.4 - - - - - - - - - 1026.7 1026.7 -
26/09:00am 9.0 - - - - - - - - - 1026.8 1026.8 -
26/08:30am 6.9 - - - - - - - - - 1026.8 1026.8 -
26/08:00am 6.5 - - - - - - - - - 1026.7 1026.7 -
26/07:30am 7.8 - - - - - - - - - 1026.5 1026.5 -
26/07:00am 7.6 - - - - - - - - - 1026.1 1026.1 -
26/06:30am 8.6 - - - - - - - - - 1025.8 1025.8 -
26/06:00am 8.4 - - - - - - - - - 1025.5 1025.5 -
26/05:30am 9.6 - - - - - - - - - 1025.2 1025.2 -
26/05:00am 9.6 - - - - - - - - - 1025.2 1025.2 -
26/04:30am 8.0 - - - - - - - - - 1025.2 1025.2 -
26/04:00am 9.0 - - - - - - - - - 1025.1 1025.1 -
26/03:30am 8.3 - - - - - - - - - 1025.2 1025.2 -
26/03:00am 9.6 - - - - - - - - - 1025.2 1025.2 -
26/02:30am 9.4 - - - - - - - - - 1025.4 1025.4 -
26/02:00am 9.6 - - - - - - - - - 1025.5 1025.5 -
26/01:30am 8.5 - - - - - - - - - 1025.5 1025.5 -
26/01:00am 8.2 - - - - - - - - - 1025.6 1025.6 -
26/12:30am 7.8 - - - - - - - - - 1025.7 1025.7 -
26/12:00am 8.1 - - - - - - - - - 1025.8 1025.8 -
 
Date/Time
EST
Temp
°C
App
Temp
°C
Dew
Point
Rel
Hum
%
Delta-T
°C
Wind Press
QNH
hPa
Press
MSL
hPa
Rain
since 9 am
mm
Dir
 
Spd
km/h
Gust
km/h
Spd
kts
Gust
kts
25/11:30pm 8.8 - - - - - - - - - 1025.8 1025.8 -
25/11:00pm 8.3 - - - - - - - - - 1025.8 1025.8 -
25/10:30pm 8.5 - - - - - - - - - 1025.9 1025.9 -
25/10:00pm 8.9 - - - - - - - - - 1026.0 1026.0 -
25/09:30pm 10.0 - - - - - - - - - 1026.1 1026.1 -
25/09:00pm 9.9 - - - - - - - - - 1026.2 1026.2 -
25/08:30pm 10.2 - - - - - - - - - 1026.4 1026.4 -
25/08:00pm 10.1 - - - - - - - - - 1026.7 1026.7 -
25/07:30pm 9.2 - - - - - - - - - 1026.6 1026.6 -
25/07:00pm 9.1 - - - - - - - - - 1026.5 1026.5 -
25/06:30pm 9.7 - - - - - - - - - 1026.4 1026.4 -
25/06:00pm 10.3 - - - - - - - - - 1026.2 1026.2 -
25/05:30pm 10.9 - - - - - - - - - 1026.0 1026.0 -
25/05:00pm 11.5 - - - - - - - - - 1025.8 1025.8 -
25/04:30pm 12.4 - - - - - - - - - 1025.7 1025.7 -
25/04:00pm 12.9 - - - - - - - - - 1025.8 1025.8 -
25/03:30pm 13.6 - - - - - - - - - 1026.0 1026.0 -
25/03:00pm 13.4 - - - - - - - - - 1026.0 1026.0 -
25/02:30pm 13.5 - - - - - - - - - 1026.0 1026.0 -
25/02:00pm 13.5 - - - - - - - - - 1026.1 1026.1 -
25/01:30pm 13.4 - - - - - - - - - 1026.2 1026.2 -
25/01:00pm 13.6 - - - - - - - - - 1026.4 1026.4 -
25/12:30pm 14.3 - - - - - - - - - 1026.7 1026.7 -
25/12:00pm 12.8 - - - - - - - - - 1027.1 1027.1 -
25/11:30am 11.2 - - - - - - - - - 1027.4 1027.4 -
25/11:00am 10.9 - - - - - - - - - 1028.1 1028.1 -
25/10:30am 9.3 - - - - - - - - - 1028.2 1028.2 -
25/10:00am 8.7 - - - - - - - - - 1028.1 1028.1 -
25/09:30am 8.1 - - - - - - - - - 1028.2 1028.2 -
25/09:00am 8.1 - - - - - - - - - 1028.4 1028.4 -
25/08:30am 7.6 - - - - - - - - - 1028.6 1028.6 -
25/08:00am 7.0 - - - - - - - - - 1028.7 1028.7 -
25/07:30am 6.7 - - - - - - - - - 1028.6 1028.6 -
25/07:00am 6.5 - - - - - - - - - 1028.4 1028.4 -
25/06:30am 6.5 - - - - - - - - - 1028.3 1028.3 -
25/06:00am 6.6 - - - - - - - - - 1028.2 1028.2 -
25/05:30am 6.4 - - - - - - - - - 1027.9 1027.9 -
25/05:00am 6.1 - - - - - - - - - 1028.0 1028.0 -
25/04:30am 6.3 - - - - - - - - - 1028.2 1028.2 -
25/04:00am 5.8 - - - - - - - - - 1028.2 1028.2 -

Other Formats:

Comma delimited format used in spreadsheet applications
http://www.bom.gov.au/fwo/IDT60801/IDT60801.95987.axf

JavaScript Object Notation format (JSON) in row-major order
http://www.bom.gov.au/fwo/IDT60801/IDT60801.95987.json